sensor_id;sensor_type;location;lat;lon;timestamp;pressure;altitude;pressure_sealevel;temperature;humidity
43707;BME280;61348;53.392;-6.248;2022-12-07T00:01:20;102059.00;;;3.47;92.10
43707;BME280;61348;53.392;-6.248;2022-12-07T00:03:48;102058.22;;;3.46;92.07
43707;BME280;61348;53.392;-6.248;2022-12-07T00:06:17;102054.09;;;3.44;91.86
43707;BME280;61348;53.392;-6.248;2022-12-07T00:08:44;102056.25;;;3.42;92.09
43707;BME280;61348;53.392;-6.248;2022-12-07T00:11:17;102055.97;;;3.38;92.15
43707;BME280;61348;53.392;-6.248;2022-12-07T00:13:45;102051.03;;;3.35;91.90
43707;BME280;61348;53.392;-6.248;2022-12-07T00:16:14;102048.84;;;3.37;92.14
43707;BME280;61348;53.392;-6.248;2022-12-07T00:18:42;102048.03;;;3.37;92.35
43707;BME280;61348;53.392;-6.248;2022-12-07T00:21:23;102049.94;;;3.36;92.43
43707;BME280;61348;53.392;-6.248;2022-12-07T00:23:51;102043.94;;;3.39;92.21
43707;BME280;61348;53.392;-6.248;2022-12-07T00:28:47;102047.50;;;3.45;92.30
43707;BME280;61348;53.392;-6.248;2022-12-07T00:31:16;102041.78;;;3.46;92.38
43707;BME280;61348;53.392;-6.248;2022-12-07T00:33:44;102040.97;;;3.46;92.38
43707;BME280;61348;53.392;-6.248;2022-12-07T00:36:14;102034.97;;;3.49;92.36
43707;BME280;61348;53.392;-6.248;2022-12-07T00:38:41;102039.06;;;3.51;92.44
43707;BME280;61348;53.392;-6.248;2022-12-07T00:41:13;102036.06;;;3.53;92.04
43707;BME280;61348;53.392;-6.248;2022-12-07T00:43:40;102041.00;;;3.56;92.32
43707;BME280;61348;53.392;-6.248;2022-12-07T00:46:08;102037.72;;;3.54;92.08
43707;BME280;61348;53.392;-6.248;2022-12-07T00:48:36;102039.34;;;3.55;92.29
43707;BME280;61348;53.392;-6.248;2022-12-07T00:51:03;102035.25;;;3.57;92.33
43707;BME280;61348;53.392;-6.248;2022-12-07T00:53:30;102037.47;;;3.60;92.07
43707;BME280;61348;53.392;-6.248;2022-12-07T00:56:23;102041.03;;;3.61;92.11
43707;BME280;61348;53.392;-6.248;2022-12-07T01:01:24;102033.91;;;3.60;91.81
43707;BME280;61348;53.392;-6.248;2022-12-07T01:03:51;102033.91;;;3.60;92.23
43707;BME280;61348;53.392;-6.248;2022-12-07T01:06:19;102034.47;;;3.62;91.97
43707;BME280;61348;53.392;-6.248;2022-12-07T01:08:46;102035.28;;;3.62;92.10
43707;BME280;61348;53.392;-6.248;2022-12-07T01:11:16;102030.63;;;3.63;91.96
43707;BME280;61348;53.392;-6.248;2022-12-07T01:13:44;102029.81;;;3.62;91.98
43707;BME280;61348;53.392;-6.248;2022-12-07T01:16:15;102033.94;;;3.65;92.06
43707;BME280;61348;53.392;-6.248;2022-12-07T01:18:45;102033.94;;;3.65;91.92
43707;BME280;61348;53.392;-6.248;2022-12-07T01:23:41;102037.75;;;3.64;92.25
43707;BME280;61348;53.392;-6.248;2022-12-07T01:26:11;102032.28;;;3.64;92.24
43707;BME280;61348;53.392;-6.248;2022-12-07T01:28:38;102023.75;;;3.60;92.07
43707;BME280;61348;53.392;-6.248;2022-12-07T01:31:08;102034.47;;;3.62;92.02
43707;BME280;61348;53.392;-6.248;2022-12-07T01:33:38;102022.41;;;3.63;92.11
43707;BME280;61348;53.392;-6.248;2022-12-07T01:38:40;102022.41;;;3.63;91.93
43707;BME280;61348;53.392;-6.248;2022-12-07T01:41:07;102018.03;;;3.62;92.01
43707;BME280;61348;53.392;-6.248;2022-12-07T01:43:34;102012.53;;;3.57;91.78
43707;BME280;61348;53.392;-6.248;2022-12-07T01:46:03;102009.81;;;3.57;92.03
43707;BME280;61348;53.392;-6.248;2022-12-07T01:48:32;102007.31;;;3.55;92.01
43707;BME280;61348;53.392;-6.248;2022-12-07T01:51:03;102013.91;;;3.54;91.90
43707;BME280;61348;53.392;-6.248;2022-12-07T01:53:32;102005.94;;;3.53;91.69
43707;BME280;61348;53.392;-6.248;2022-12-07T01:56:01;102012.53;;;3.52;91.86
43707;BME280;61348;53.392;-6.248;2022-12-07T01:58:28;102010.31;;;3.49;91.44
43707;BME280;61348;53.392;-6.248;2022-12-07T02:00:54;102008.41;;;3.49;91.87
43707;BME280;61348;53.392;-6.248;2022-12-07T02:03:31;102011.41;;;3.48;91.94
43707;BME280;61348;53.392;-6.248;2022-12-07T02:05:59;102012.47;;;3.47;91.50
43707;BME280;61348;53.392;-6.248;2022-12-07T02:08:27;102004.84;;;3.49;91.82
43707;BME280;61348;53.392;-6.248;2022-12-07T02:10:54;102009.75;;;3.47;91.80
43707;BME280;61348;53.392;-6.248;2022-12-07T02:13:23;102005.91;;;3.48;91.68
43707;BME280;61348;53.392;-6.248;2022-12-07T02:16:19;101996.09;;;3.52;92.02
43707;BME280;61348;53.392;-6.248;2022-12-07T02:30:52;101996.63;;;3.49;91.34
43707;BME280;61348;53.392;-6.248;2022-12-07T02:33:27;102004.53;;;3.45;91.26
43707;BME280;61348;53.392;-6.248;2022-12-07T02:36:00;102004.81;;;3.44;91.44
43707;BME280;61348;53.392;-6.248;2022-12-07T02:38:35;101996.34;;;3.45;91.88
43707;BME280;61348;53.392;-6.248;2022-12-07T02:43:42;101994.66;;;3.44;91.77
43707;BME280;61348;53.392;-6.248;2022-12-07T02:46:13;101991.13;;;3.44;91.80
43707;BME280;61348;53.392;-6.248;2022-12-07T02:48:42;101987.81;;;3.42;91.43
43707;BME280;61348;53.392;-6.248;2022-12-07T02:51:09;101995.47;;;3.40;91.73
43707;BME280;61348;53.392;-6.248;2022-12-07T02:53:37;101991.38;;;3.37;91.39
43707;BME280;61348;53.392;-6.248;2022-12-07T03:04:55;101975.97;;;3.26;91.68
43707;BME280;61348;53.392;-6.248;2022-12-07T03:12:48;101976.81;;;3.27;91.60
43707;BME280;61348;53.392;-6.248;2022-12-07T03:18:11;101975.72;;;3.23;92.00
43707;BME280;61348;53.392;-6.248;2022-12-07T03:20:41;101975.72;;;3.23;91.76
43707;BME280;61348;53.392;-6.248;2022-12-07T03:23:12;101970.25;;;3.23;91.79
43707;BME280;61348;53.392;-6.248;2022-12-07T03:25:43;101966.41;;;3.24;91.87
43707;BME280;61348;53.392;-6.248;2022-12-07T03:28:15;101975.16;;;3.26;91.84
43707;BME280;61348;53.392;-6.248;2022-12-07T03:30:49;101961.47;;;3.26;91.77
43707;BME280;61348;53.392;-6.248;2022-12-07T03:36:00;101964.22;;;3.26;91.58
43707;BME280;61348;53.392;-6.248;2022-12-07T03:38:42;101959.84;;;3.25;91.91
43707;BME280;61348;53.392;-6.248;2022-12-07T03:41:18;101961.47;;;3.26;91.54
43707;BME280;61348;53.392;-6.248;2022-12-07T03:43:46;101958.72;;;3.26;91.57
43707;BME280;61348;53.392;-6.248;2022-12-07T03:52:01;101960.66;;;3.25;91.69
43707;BME280;61348;53.392;-6.248;2022-12-07T03:54:36;101956.81;;;3.26;91.54
43707;BME280;61348;53.392;-6.248;2022-12-07T03:57:05;101953.00;;;3.27;91.43
43707;BME280;61348;53.392;-6.248;2022-12-07T03:59:33;101949.44;;;3.27;91.60
43707;BME280;61348;53.392;-6.248;2022-12-07T04:02:05;101948.38;;;3.28;91.57
43707;BME280;61348;53.392;-6.248;2022-12-07T04:04:33;101945.63;;;3.28;91.73
43707;BME280;61348;53.392;-6.248;2022-12-07T04:07:02;101938.50;;;3.27;91.41
43707;BME280;61348;53.392;-6.248;2022-12-07T04:09:29;101942.31;;;3.26;91.58
43707;BME280;61348;53.392;-6.248;2022-12-07T04:11:56;101937.41;;;3.23;91.64
43707;BME280;61348;53.392;-6.248;2022-12-07T04:14:22;101937.94;;;3.20;91.32
43707;BME280;61348;53.392;-6.248;2022-12-07T04:16:51;101940.13;;;3.18;91.54
43707;BME280;61348;53.392;-6.248;2022-12-07T04:19:20;101943.94;;;3.17;91.21
43707;BME280;61348;53.392;-6.248;2022-12-07T04:21:47;101935.97;;;3.15;91.29
43707;BME280;61348;53.392;-6.248;2022-12-07T04:24:15;101928.03;;;3.14;91.54
43707;BME280;61348;53.392;-6.248;2022-12-07T04:26:48;101929.13;;;3.13;91.14
43707;BME280;61348;53.392;-6.248;2022-12-07T04:29:15;101925.84;;;3.16;91.44
43707;BME280;61348;53.392;-6.248;2022-12-07T04:31:42;101919.28;;;3.12;91.43
43707;BME280;61348;53.392;-6.248;2022-12-07T04:34:10;101918.47;;;3.11;91.64
43707;BME280;61348;53.392;-6.248;2022-12-07T04:36:38;101920.66;;;3.09;91.36
43707;BME280;61348;53.392;-6.248;2022-12-07T04:39:06;101918.16;;;3.07;91.56
43707;BME280;61348;53.392;-6.248;2022-12-07T04:41:33;101917.59;;;3.05;91.46
43707;BME280;61348;53.392;-6.248;2022-12-07T04:44:03;101922.25;;;3.05;91.51
43707;BME280;61348;53.392;-6.248;2022-12-07T04:46:31;101919.50;;;3.05;91.60
43707;BME280;61348;53.392;-6.248;2022-12-07T04:48:58;101918.41;;;3.01;91.43
43707;BME280;61348;53.392;-6.248;2022-12-07T04:51:27;101915.94;;;2.99;91.26
43707;BME280;61348;53.392;-6.248;2022-12-07T04:53:55;101918.13;;;2.97;91.00
43707;BME280;61348;53.392;-6.248;2022-12-07T04:56:22;101900.06;;;2.96;91.45
43707;BME280;61348;53.392;-6.248;2022-12-07T04:58:50;101911.53;;;2.93;91.08
43707;BME280;61348;53.392;-6.248;2022-12-07T05:01:18;101913.69;;;2.91;91.08
43707;BME280;61348;53.392;-6.248;2022-12-07T05:03:45;101906.84;;;2.89;90.89
43707;BME280;61348;53.392;-6.248;2022-12-07T05:06:12;101912.59;;;2.87;91.02
43707;BME280;61348;53.392;-6.248;2022-12-07T05:08:40;101917.25;;;2.87;91.10
43707;BME280;61348;53.392;-6.248;2022-12-07T05:11:07;101910.94;;;2.86;91.21
43707;BME280;61348;53.392;-6.248;2022-12-07T05:13:35;101913.44;;;2.88;90.82
43707;BME280;61348;53.392;-6.248;2022-12-07T05:16:02;101913.16;;;2.89;90.81
43707;BME280;61348;53.392;-6.248;2022-12-07T05:18:29;101917.53;;;2.90;90.77
43707;BME280;61348;53.392;-6.248;2022-12-07T05:20:56;101917.53;;;2.90;91.12
43707;BME280;61348;53.392;-6.248;2022-12-07T05:23:22;101908.22;;;2.91;90.82
43707;BME280;61348;53.392;-6.248;2022-12-07T05:25:49;101919.16;;;2.91;91.03
43707;BME280;61348;53.392;-6.248;2022-12-07T05:28:16;101915.34;;;2.92;90.81
43707;BME280;61348;53.392;-6.248;2022-12-07T05:30:43;101920.81;;;2.92;91.19
43707;BME280;61348;53.392;-6.248;2022-12-07T05:33:09;101919.16;;;2.91;91.08
43707;BME280;61348;53.392;-6.248;2022-12-07T05:35:36;101918.63;;;2.89;90.63
43707;BME280;61348;53.392;-6.248;2022-12-07T05:38:04;101920.81;;;2.87;90.62
43707;BME280;61348;53.392;-6.248;2022-12-07T05:40:31;101919.72;;;2.88;90.99
43707;BME280;61348;53.392;-6.248;2022-12-07T05:42:57;101921.88;;;2.86;91.07
43707;BME280;61348;53.392;-6.248;2022-12-07T05:45:30;101907.13;;;2.87;91.06
43707;BME280;61348;53.392;-6.248;2022-12-07T05:47:57;101918.59;;;2.84;90.69
43707;BME280;61348;53.392;-6.248;2022-12-07T05:50:24;101915.63;;;2.86;90.82
43707;BME280;61348;53.392;-6.248;2022-12-07T05:52:50;101915.06;;;2.89;91.16
43707;BME280;61348;53.392;-6.248;2022-12-07T05:55:17;101912.06;;;2.90;90.82
43707;BME280;61348;53.392;-6.248;2022-12-07T05:57:44;101913.16;;;2.89;90.88
43707;BME280;61348;53.392;-6.248;2022-12-07T06:00:31;101912.63;;;2.92;91.50
43707;BME280;61348;53.392;-6.248;2022-12-07T06:02:58;101918.66;;;2.94;91.12
43707;BME280;61348;53.392;-6.248;2022-12-07T06:05:25;101915.91;;;2.94;90.88
43707;BME280;61348;53.392;-6.248;2022-12-07T06:07:51;101914.28;;;2.93;90.88
43707;BME280;61348;53.392;-6.248;2022-12-07T06:10:18;101913.16;;;2.94;90.79
43707;BME280;61348;53.392;-6.248;2022-12-07T06:12:45;101908.53;;;2.95;91.20
43707;BME280;61348;53.392;-6.248;2022-12-07T06:15:12;101908.53;;;2.95;90.88
43707;BME280;61348;53.392;-6.248;2022-12-07T06:17:39;101905.25;;;2.93;90.74
43707;BME280;61348;53.392;-6.248;2022-12-07T06:20:06;101900.06;;;2.96;91.13
43707;BME280;61348;53.392;-6.248;2022-12-07T06:22:33;101902.22;;;2.94;90.73
43707;BME280;61348;53.392;-6.248;2022-12-07T06:24:59;101905.78;;;2.95;91.14
43707;BME280;61348;53.392;-6.248;2022-12-07T06:27:34;101894.59;;;2.96;90.69
43707;BME280;61348;53.392;-6.248;2022-12-07T06:30:02;101896.50;;;2.91;90.94
43707;BME280;61348;53.392;-6.248;2022-12-07T06:32:33;101897.84;;;2.88;90.57
43707;BME280;61348;53.392;-6.248;2022-12-07T06:35:00;101900.00;;;2.86;90.99
43707;BME280;61348;53.392;-6.248;2022-12-07T06:37:26;101893.69;;;2.81;90.85
43707;BME280;61348;53.392;-6.248;2022-12-07T06:39:53;101903.78;;;2.75;90.85
43707;BME280;61348;53.392;-6.248;2022-12-07T06:42:20;101900.47;;;2.73;90.86
43707;BME280;61348;53.392;-6.248;2022-12-07T06:44:46;101895.59;;;2.75;91.37
43707;BME280;61348;53.392;-6.248;2022-12-07T06:47:13;101891.72;;;2.71;90.92
43707;BME280;61348;53.392;-6.248;2022-12-07T06:50:00;101897.19;;;2.71;91.05
43707;BME280;61348;53.392;-6.248;2022-12-07T06:52:27;101894.44;;;2.66;90.94
43707;BME280;61348;53.392;-6.248;2022-12-07T06:54:54;101891.69;;;2.61;91.09
43707;BME280;61348;53.392;-6.248;2022-12-07T06:57:20;101891.66;;;2.56;90.91
43707;BME280;61348;53.392;-6.248;2022-12-07T06:59:47;101891.09;;;2.54;91.02
43707;BME280;61348;53.392;-6.248;2022-12-07T07:02:14;101893.25;;;2.52;90.96
43707;BME280;61348;53.392;-6.248;2022-12-07T07:04:40;101896.25;;;2.51;91.15
43707;BME280;61348;53.392;-6.248;2022-12-07T07:07:07;101898.13;;;2.45;90.74
43707;BME280;61348;53.392;-6.248;2022-12-07T07:09:34;101895.66;;;2.43;90.67
43707;BME280;61348;53.392;-6.248;2022-12-07T07:12:00;101897.81;;;2.41;90.98
43707;BME280;61348;53.392;-6.248;2022-12-07T07:14:27;101893.72;;;2.39;91.46
43707;BME280;61348;53.392;-6.248;2022-12-07T07:16:54;101897.53;;;2.38;91.13
43707;BME280;61348;53.392;-6.248;2022-12-07T07:19:21;101893.44;;;2.35;91.21
43707;BME280;61348;53.392;-6.248;2022-12-07T07:21:47;101892.59;;;2.35;91.14
43707;BME280;61348;53.392;-6.248;2022-12-07T07:24:14;101887.69;;;2.37;91.26
43707;BME280;61348;53.392;-6.248;2022-12-07T07:26:41;101883.28;;;2.36;91.33
43707;BME280;61348;53.392;-6.248;2022-12-07T07:29:07;101878.66;;;2.36;91.05
43707;BME280;61348;53.392;-6.248;2022-12-07T07:31:34;101885.22;;;2.35;91.56
43707;BME280;61348;53.392;-6.248;2022-12-07T07:34:02;101879.75;;;2.35;91.19
43707;BME280;61348;53.392;-6.248;2022-12-07T07:36:28;101883.28;;;2.36;91.44
43707;BME280;61348;53.392;-6.248;2022-12-07T07:38:55;101891.25;;;2.37;91.35
43707;BME280;61348;53.392;-6.248;2022-12-07T07:41:21;101885.50;;;2.39;91.68
43707;BME280;61348;53.392;-6.248;2022-12-07T07:43:48;101889.63;;;2.41;91.66
43707;BME280;61348;53.392;-6.248;2022-12-07T07:46:15;101895.66;;;2.43;91.72
43707;BME280;61348;53.392;-6.248;2022-12-07T07:48:42;101892.66;;;2.45;91.60
43707;BME280;61348;53.392;-6.248;2022-12-07T07:51:09;101890.75;;;2.45;91.73
43707;BME280;61348;53.392;-6.248;2022-12-07T07:53:36;101898.13;;;2.45;91.34
43707;BME280;61348;53.392;-6.248;2022-12-07T07:56:03;101897.28;;;2.44;91.45
43707;BME280;61348;53.392;-6.248;2022-12-07T07:58:30;101898.66;;;2.42;91.49
43707;BME280;61348;53.392;-6.248;2022-12-07T08:00:56;101895.38;;;2.40;91.78
43707;BME280;61348;53.392;-6.248;2022-12-07T08:03:23;101889.91;;;2.40;91.75
43707;BME280;61348;53.392;-6.248;2022-12-07T08:05:50;101897.00;;;2.41;91.58
43707;BME280;61348;53.392;-6.248;2022-12-07T08:08:16;101895.38;;;2.40;91.74
43707;BME280;61348;53.392;-6.248;2022-12-07T08:10:43;101895.38;;;2.40;91.92
43707;BME280;61348;53.392;-6.248;2022-12-07T08:13:10;101897.81;;;2.41;91.71
43707;BME280;61348;53.392;-6.248;2022-12-07T08:15:38;101897.81;;;2.41;91.97
43707;BME280;61348;53.392;-6.248;2022-12-07T08:18:05;101884.44;;;2.40;91.77
43707;BME280;61348;53.392;-6.248;2022-12-07T08:20:34;101890.16;;;2.38;91.80
43707;BME280;61348;53.392;-6.248;2022-12-07T08:23:01;101886.59;;;2.38;91.27
43707;BME280;61348;53.392;-6.248;2022-12-07T08:25:28;101894.22;;;2.36;91.68
43707;BME280;61348;53.392;-6.248;2022-12-07T08:27:55;101887.97;;;2.35;91.78
43707;BME280;61348;53.392;-6.248;2022-12-07T08:30:22;101886.00;;;2.31;91.49
43707;BME280;61348;53.392;-6.248;2022-12-07T08:32:49;101877.75;;;2.26;91.54
43707;BME280;61348;53.392;-6.248;2022-12-07T08:35:17;101878.56;;;2.21;91.31
43707;BME280;61348;53.392;-6.248;2022-12-07T08:37:43;101877.97;;;2.14;91.02
43707;BME280;61348;53.392;-6.248;2022-12-07T08:40:11;101881.47;;;2.10;91.09
43707;BME280;61348;53.392;-6.248;2022-12-07T08:42:51;101885.00;;;2.05;91.24
43707;BME280;61348;53.392;-6.248;2022-12-07T08:45:19;101878.13;;;2.03;91.14
43707;BME280;61348;53.392;-6.248;2022-12-07T08:48:03;101877.53;;;1.96;91.31
43707;BME280;61348;53.392;-6.248;2022-12-07T08:50:32;101885.16;;;1.94;91.00
43707;BME280;61348;53.392;-6.248;2022-12-07T08:53:00;101884.03;;;1.90;91.24
43707;BME280;61348;53.392;-6.248;2022-12-07T08:55:28;101883.44;;;1.82;91.27
43707;BME280;61348;53.392;-6.248;2022-12-07T08:57:57;101875.25;;;1.82;90.99
43707;BME280;61348;53.392;-6.248;2022-12-07T09:00:25;101879.56;;;1.78;90.74
43707;BME280;61348;53.392;-6.248;2022-12-07T09:02:53;101874.88;;;1.74;90.88
43707;BME280;61348;53.392;-6.248;2022-12-07T09:05:21;101883.91;;;1.74;90.71
43707;BME280;61348;53.392;-6.248;2022-12-07T09:07:51;101883.31;;;1.72;90.89
43707;BME280;61348;53.392;-6.248;2022-12-07T09:10:19;101875.13;;;1.72;90.69
43707;BME280;61348;53.392;-6.248;2022-12-07T09:12:45;101875.13;;;1.72;90.79
43707;BME280;61348;53.392;-6.248;2022-12-07T09:15:12;101881.69;;;1.71;91.10
43707;BME280;61348;53.392;-6.248;2022-12-07T09:17:39;101885.50;;;1.70;91.02
43707;BME280;61348;53.392;-6.248;2022-12-07T09:20:06;101886.31;;;1.71;90.89
43707;BME280;61348;53.392;-6.248;2022-12-07T09:22:33;101883.88;;;1.69;90.63
43707;BME280;61348;53.392;-6.248;2022-12-07T09:25:00;101880.88;;;1.71;90.85
43707;BME280;61348;53.392;-6.248;2022-12-07T09:27:28;101880.03;;;1.70;90.85
43707;BME280;61348;53.392;-6.248;2022-12-07T09:29:55;101878.97;;;1.71;90.76
43707;BME280;61348;53.392;-6.248;2022-12-07T09:32:22;101879.53;;;1.73;90.58
43707;BME280;61348;53.392;-6.248;2022-12-07T09:34:49;101885.50;;;1.70;91.01
43707;BME280;61348;53.392;-6.248;2022-12-07T09:37:16;101884.94;;;1.68;90.72
43707;BME280;61348;53.392;-6.248;2022-12-07T09:39:43;101889.84;;;1.66;90.52
43707;BME280;61348;53.392;-6.248;2022-12-07T09:42:39;101878.91;;;1.66;90.62
43707;BME280;61348;53.392;-6.248;2022-12-07T09:45:17;101875.34;;;1.66;90.85
43707;BME280;61348;53.392;-6.248;2022-12-07T09:47:45;101878.66;;;1.68;90.66
43707;BME280;61348;53.392;-6.248;2022-12-07T09:50:16;101883.88;;;1.69;90.91
43707;BME280;61348;53.392;-6.248;2022-12-07T09:52:45;101879.22;;;1.70;90.71
43707;BME280;61348;53.392;-6.248;2022-12-07T09:55:16;101880.59;;;1.72;90.71
43707;BME280;61348;53.392;-6.248;2022-12-07T09:57:46;101877.34;;;1.75;90.52
43707;BME280;61348;53.392;-6.248;2022-12-07T10:00:15;101871.88;;;1.75;90.71
43707;BME280;61348;53.392;-6.248;2022-12-07T10:05:34;101869.47;;;1.79;90.87
43707;BME280;61348;53.392;-6.248;2022-12-07T10:08:03;101883.44;;;1.82;90.92
43707;BME280;61348;53.392;-6.248;2022-12-07T10:10:33;101879.09;;;1.87;90.75
43707;BME280;61348;53.392;-6.248;2022-12-07T10:13:07;101870.38;;;1.90;90.91
43707;BME280;61348;53.392;-6.248;2022-12-07T10:23:40;101867.41;;;1.96;90.48
43707;BME280;61348;53.392;-6.248;2022-12-07T10:26:33;101867.41;;;1.96;90.27
43707;BME280;61348;53.392;-6.248;2022-12-07T10:29:04;101862.78;;;1.97;90.31
43707;BME280;61348;53.392;-6.248;2022-12-07T10:31:41;101858.47;;;2.01;90.48
43707;BME280;61348;53.392;-6.248;2022-12-07T10:34:26;101847.53;;;2.01;90.45
43707;BME280;61348;53.392;-6.248;2022-12-07T10:37:17;101854.13;;;2.05;90.70
43707;BME280;61348;53.392;-6.248;2022-12-07T10:39:56;101849.78;;;2.09;90.53
43707;BME280;61348;53.392;-6.248;2022-12-07T10:42:28;101850.06;;;2.12;90.90
43707;BME280;61348;53.392;-6.248;2022-12-07T10:45:14;101839.44;;;2.16;90.70
43707;BME280;61348;53.392;-6.248;2022-12-07T10:53:57;101831.88;;;2.28;90.65
43707;BME280;61348;53.392;-6.248;2022-12-07T11:02:16;101834.41;;;2.39;90.43
43707;BME280;61348;53.392;-6.248;2022-12-07T11:05:49;101830.09;;;2.43;90.48
43707;BME280;61348;53.392;-6.248;2022-12-07T11:08:49;101827.63;;;2.47;90.40
43707;BME280;61348;53.392;-6.248;2022-12-07T11:11:45;101823.84;;;2.53;90.49
43707;BME280;61348;53.392;-6.248;2022-12-07T11:14:28;101821.13;;;2.58;90.67
43707;BME280;61348;53.392;-6.248;2022-12-07T11:22:29;101818.44;;;2.73;90.34
43707;BME280;61348;53.392;-6.248;2022-12-07T11:25:27;101815.19;;;2.76;90.46
43707;BME280;61348;53.392;-6.248;2022-12-07T11:36:33;101802.69;;;3.00;90.42
43707;BME280;61348;53.392;-6.248;2022-12-07T11:39:14;101812.56;;;3.06;90.50
43707;BME280;61348;53.392;-6.248;2022-12-07T11:41:42;101807.66;;;3.14;90.10
43707;BME280;61348;53.392;-6.248;2022-12-07T11:44:30;101793.44;;;3.22;90.02
43707;BME280;61348;53.392;-6.248;2022-12-07T11:47:06;101794.00;;;3.29;90.02
43707;BME280;61348;53.392;-6.248;2022-12-07T11:55:48;101775.97;;;3.43;89.64
43707;BME280;61348;53.392;-6.248;2022-12-07T12:00:55;101769.66;;;3.47;89.48
43707;BME280;61348;53.392;-6.248;2022-12-07T12:03:34;101772.13;;;3.54;88.89
43707;BME280;61348;53.392;-6.248;2022-12-07T12:06:02;101767.22;;;3.56;89.23
43707;BME280;61348;53.392;-6.248;2022-12-07T12:08:30;101768.31;;;3.60;88.72
43707;BME280;61348;53.392;-6.248;2022-12-07T12:20:00;101763.06;;;3.79;88.03
43707;BME280;61348;53.392;-6.248;2022-12-07T12:22:37;101763.66;;;3.81;88.16
43707;BME280;61348;53.392;-6.248;2022-12-07T12:25:11;101757.88;;;3.82;87.91
43707;BME280;61348;53.392;-6.248;2022-12-07T12:27:45;101746.66;;;3.84;87.56
43707;BME280;61348;53.392;-6.248;2022-12-07T12:30:43;101749.66;;;3.87;87.66
43707;BME280;61348;53.392;-6.248;2022-12-07T12:33:28;101739.81;;;3.86;87.33
43707;BME280;61348;53.392;-6.248;2022-12-07T12:47:02;101731.28;;;3.93;86.62
43707;BME280;61348;53.392;-6.248;2022-12-07T12:49:40;101725.56;;;3.94;86.69
43707;BME280;61348;53.392;-6.248;2022-12-07T12:55:15;101712.41;;;3.96;86.25
43707;BME280;61348;53.392;-6.248;2022-12-07T13:00:47;101707.97;;;4.00;86.09
43707;BME280;61348;53.392;-6.248;2022-12-07T13:03:50;101713.47;;;4.00;85.89
43707;BME280;61348;53.392;-6.248;2022-12-07T13:06:31;101701.94;;;4.03;85.74
43707;BME280;61348;53.392;-6.248;2022-12-07T13:09:02;101700.56;;;4.06;85.99
43707;BME280;61348;53.392;-6.248;2022-12-07T13:11:32;101688.22;;;4.08;85.87
43707;BME280;61348;53.392;-6.248;2022-12-07T13:20:00;101696.97;;;4.20;85.73
43707;BME280;61348;53.392;-6.248;2022-12-07T13:27:38;101685.16;;;4.30;85.39
43707;BME280;61348;53.392;-6.248;2022-12-07T13:30:14;101681.28;;;4.36;84.85
43707;BME280;61348;53.392;-6.248;2022-12-07T13:32:42;101685.63;;;4.47;85.02
43707;BME280;61348;53.392;-6.248;2022-12-07T13:35:42;101681.44;;;4.60;85.05
43707;BME280;61348;53.392;-6.248;2022-12-07T13:38:34;101680.28;;;4.71;84.81
43707;BME280;61348;53.392;-6.248;2022-12-07T13:41:17;101679.41;;;4.80;84.40
43707;BME280;61348;53.392;-6.248;2022-12-07T13:43:50;101679.66;;;4.84;84.60
43707;BME280;61348;53.392;-6.248;2022-12-07T13:46:20;101668.69;;;4.84;84.34
43707;BME280;61348;53.392;-6.248;2022-12-07T13:48:52;101674.97;;;4.84;84.50
43707;BME280;61348;53.392;-6.248;2022-12-07T13:51:24;101661.81;;;4.86;84.42
43707;BME280;61348;53.392;-6.248;2022-12-07T13:53:55;101659.34;;;4.85;84.04
43707;BME280;61348;53.392;-6.248;2022-12-07T13:56:34;101657.72;;;4.84;83.87
43707;BME280;61348;53.392;-6.248;2022-12-07T13:59:05;101653.84;;;4.85;83.87
43707;BME280;61348;53.392;-6.248;2022-12-07T14:01:32;101659.59;;;4.88;83.90
43707;BME280;61348;53.392;-6.248;2022-12-07T14:06:50;101652.66;;;4.96;83.17
43707;BME280;61348;53.392;-6.248;2022-12-07T14:11:48;101637.28;;;5.00;82.88
43707;BME280;61348;53.392;-6.248;2022-12-07T14:14:33;101629.63;;;4.97;82.62
43707;BME280;61348;53.392;-6.248;2022-12-07T14:19:42;101627.81;;;4.82;82.21
43707;BME280;61348;53.392;-6.248;2022-12-07T14:22:37;101618.56;;;4.73;82.25
43707;BME280;61348;53.392;-6.248;2022-12-07T14:27:51;101612.88;;;4.60;81.93
43707;BME280;61348;53.392;-6.248;2022-12-07T14:30:19;101609.91;;;4.51;81.85
43707;BME280;61348;53.392;-6.248;2022-12-07T14:32:52;101607.50;;;4.45;81.88
43707;BME280;61348;53.392;-6.248;2022-12-07T14:35:19;101613.00;;;4.40;81.87
43707;BME280;61348;53.392;-6.248;2022-12-07T14:37:48;101616.59;;;4.35;81.73
43707;BME280;61348;53.392;-6.248;2022-12-07T14:40:22;101612.50;;;4.32;81.34
43707;BME280;61348;53.392;-6.248;2022-12-07T14:43:02;101599.91;;;4.26;81.55
43707;BME280;61348;53.392;-6.248;2022-12-07T14:45:30;101607.06;;;4.22;81.18
43707;BME280;61348;53.392;-6.248;2022-12-07T14:47:57;101600.50;;;4.18;81.13
43707;BME280;61348;53.392;-6.248;2022-12-07T14:50:49;101597.53;;;4.15;81.17
43707;BME280;61348;53.392;-6.248;2022-12-07T14:53:41;101592.06;;;4.10;81.17
43707;BME280;61348;53.392;-6.248;2022-12-07T14:56:09;101600.56;;;4.08;80.94
43707;BME280;61348;53.392;-6.248;2022-12-07T14:58:36;101604.41;;;4.07;80.83
43707;BME280;61348;53.392;-6.248;2022-12-07T15:01:03;101591.81;;;4.06;80.96
43707;BME280;61348;53.392;-6.248;2022-12-07T15:03:29;101579.75;;;4.07;81.15
43707;BME280;61348;53.392;-6.248;2022-12-07T15:05:57;101580.84;;;4.06;80.67
43707;BME280;61348;53.392;-6.248;2022-12-07T15:08:24;101588.53;;;4.04;81.07
43707;BME280;61348;53.392;-6.248;2022-12-07T15:10:50;101590.44;;;4.04;81.01
43707;BME280;61348;53.392;-6.248;2022-12-07T15:13:17;101584.13;;;4.03;80.88
43707;BME280;61348;53.392;-6.248;2022-12-07T15:16:03;101592.88;;;4.05;80.94
43707;BME280;61348;53.392;-6.248;2022-12-07T15:18:30;101579.19;;;4.05;81.01
43707;BME280;61348;53.392;-6.248;2022-12-07T15:20:56;101583.56;;;4.06;81.17
43707;BME280;61348;53.392;-6.248;2022-12-07T15:23:23;101587.97;;;4.07;80.81
43707;BME280;61348;53.392;-6.248;2022-12-07T15:25:50;101573.44;;;4.07;80.69
43707;BME280;61348;53.392;-6.248;2022-12-07T15:28:17;101561.38;;;4.08;80.91
43707;BME280;61348;53.392;-6.248;2022-12-07T15:30:44;101561.66;;;4.06;81.00
43707;BME280;61348;53.392;-6.248;2022-12-07T15:33:13;101558.09;;;4.06;80.86